sensor_id;sensor_type;location;lat;lon;timestamp;P1;durP1;ratioP1;P2;durP2;ratioP2
14847;SDS011;7516;43.570;1.448;2022-11-09T00:01:15;3.10;;;1.97;;
14847;SDS011;7516;43.570;1.448;2022-11-09T00:03:42;3.50;;;2.20;;
14847;SDS011;7516;43.570;1.448;2022-11-09T00:06:12;3.37;;;1.90;;
14847;SDS011;7516;43.570;1.448;2022-11-09T00:08:39;3.47;;;1.87;;
14847;SDS011;7516;43.570;1.448;2022-11-09T00:11:08;3.47;;;2.30;;
14847;SDS011;7516;43.570;1.448;2022-11-09T00:13:36;4.23;;;2.00;;
14847;SDS011;7516;43.570;1.448;2022-11-09T00:16:06;2.63;;;1.80;;
14847;SDS011;7516;43.570;1.448;2022-11-09T00:18:35;3.07;;;2.10;;
14847;SDS011;7516;43.570;1.448;2022-11-09T00:21:06;2.53;;;1.73;;
14847;SDS011;7516;43.570;1.448;2022-11-09T00:23:36;2.47;;;1.70;;
14847;SDS011;7516;43.570;1.448;2022-11-09T00:26:05;2.70;;;2.00;;
14847;SDS011;7516;43.570;1.448;2022-11-09T00:28:34;2.77;;;2.30;;
14847;SDS011;7516;43.570;1.448;2022-11-09T00:31:03;3.20;;;2.30;;
14847;SDS011;7516;43.570;1.448;2022-11-09T00:33:32;2.67;;;1.70;;
14847;SDS011;7516;43.570;1.448;2022-11-09T00:36:01;3.57;;;2.00;;
14847;SDS011;7516;43.570;1.448;2022-11-09T00:38:32;1.90;;;1.63;;
14847;SDS011;7516;43.570;1.448;2022-11-09T00:41:01;3.93;;;2.13;;
14847;SDS011;7516;43.570;1.448;2022-11-09T00:43:30;3.40;;;2.10;;
14847;SDS011;7516;43.570;1.448;2022-11-09T00:45:58;2.83;;;1.93;;
14847;SDS011;7516;43.570;1.448;2022-11-09T00:48:25;3.80;;;2.00;;
14847;SDS011;7516;43.570;1.448;2022-11-09T00:50:53;3.43;;;1.67;;
14847;SDS011;7516;43.570;1.448;2022-11-09T00:53:23;3.00;;;1.83;;
14847;SDS011;7516;43.570;1.448;2022-11-09T00:55:54;2.30;;;1.90;;
14847;SDS011;7516;43.570;1.448;2022-11-09T00:58:24;2.77;;;1.97;;
14847;SDS011;7516;43.570;1.448;2022-11-09T01:00:54;2.97;;;1.90;;
14847;SDS011;7516;43.570;1.448;2022-11-09T01:03:23;3.30;;;1.93;;
14847;SDS011;7516;43.570;1.448;2022-11-09T01:05:51;2.73;;;1.80;;
14847;SDS011;7516;43.570;1.448;2022-11-09T01:08:19;2.27;;;1.50;;
14847;SDS011;7516;43.570;1.448;2022-11-09T01:10:47;3.00;;;2.10;;
14847;SDS011;7516;43.570;1.448;2022-11-09T01:13:15;2.20;;;1.60;;
14847;SDS011;7516;43.570;1.448;2022-11-09T01:15:45;3.30;;;2.00;;
14847;SDS011;7516;43.570;1.448;2022-11-09T01:18:15;2.80;;;1.70;;
14847;SDS011;7516;43.570;1.448;2022-11-09T01:20:45;2.20;;;1.60;;
14847;SDS011;7516;43.570;1.448;2022-11-09T01:23:14;2.30;;;1.87;;
14847;SDS011;7516;43.570;1.448;2022-11-09T01:25:43;2.33;;;1.80;;
14847;SDS011;7516;43.570;1.448;2022-11-09T01:28:11;2.40;;;1.90;;
14847;SDS011;7516;43.570;1.448;2022-11-09T01:30:39;5.57;;;2.20;;
14847;SDS011;7516;43.570;1.448;2022-11-09T01:33:10;2.50;;;2.00;;
14847;SDS011;7516;43.570;1.448;2022-11-09T01:35:38;3.97;;;2.00;;
14847;SDS011;7516;43.570;1.448;2022-11-09T01:38:06;2.63;;;1.70;;
14847;SDS011;7516;43.570;1.448;2022-11-09T01:40:37;2.47;;;1.70;;
14847;SDS011;7516;43.570;1.448;2022-11-09T01:43:05;2.50;;;2.00;;
14847;SDS011;7516;43.570;1.448;2022-11-09T01:45:40;2.30;;;1.60;;
14847;SDS011;7516;43.570;1.448;2022-11-09T01:48:14;2.60;;;2.10;;
14847;SDS011;7516;43.570;1.448;2022-11-09T01:50:44;3.33;;;1.80;;
14847;SDS011;7516;43.570;1.448;2022-11-09T01:53:16;2.27;;;1.73;;
14847;SDS011;7516;43.570;1.448;2022-11-09T01:55:47;2.27;;;1.80;;
14847;SDS011;7516;43.570;1.448;2022-11-09T01:58:17;2.70;;;1.80;;
14847;SDS011;7516;43.570;1.448;2022-11-09T02:00:49;2.83;;;1.80;;
14847;SDS011;7516;43.570;1.448;2022-11-09T02:03:20;2.20;;;1.70;;
14847;SDS011;7516;43.570;1.448;2022-11-09T02:05:51;3.40;;;1.63;;
14847;SDS011;7516;43.570;1.448;2022-11-09T02:08:20;3.37;;;1.97;;
14847;SDS011;7516;43.570;1.448;2022-11-09T02:10:52;2.77;;;1.80;;
14847;SDS011;7516;43.570;1.448;2022-11-09T02:13:25;3.30;;;1.90;;
14847;SDS011;7516;43.570;1.448;2022-11-09T02:15:54;3.10;;;1.60;;
14847;SDS011;7516;43.570;1.448;2022-11-09T02:18:23;3.07;;;1.63;;
14847;SDS011;7516;43.570;1.448;2022-11-09T02:20:53;2.00;;;1.50;;
14847;SDS011;7516;43.570;1.448;2022-11-09T02:23:22;2.20;;;1.57;;
14847;SDS011;7516;43.570;1.448;2022-11-09T02:25:52;2.53;;;1.90;;
14847;SDS011;7516;43.570;1.448;2022-11-09T02:28:23;2.77;;;1.60;;
14847;SDS011;7516;43.570;1.448;2022-11-09T02:30:52;3.97;;;1.83;;
14847;SDS011;7516;43.570;1.448;2022-11-09T02:33:22;2.00;;;1.50;;
14847;SDS011;7516;43.570;1.448;2022-11-09T02:35:49;2.37;;;1.70;;
14847;SDS011;7516;43.570;1.448;2022-11-09T02:38:18;2.50;;;1.57;;
14847;SDS011;7516;43.570;1.448;2022-11-09T02:40:47;1.80;;;1.57;;
14847;SDS011;7516;43.570;1.448;2022-11-09T02:43:17;2.13;;;1.67;;
14847;SDS011;7516;43.570;1.448;2022-11-09T02:45:44;2.40;;;1.90;;
14847;SDS011;7516;43.570;1.448;2022-11-09T02:48:12;2.50;;;1.73;;
14847;SDS011;7516;43.570;1.448;2022-11-09T02:50:39;2.27;;;1.67;;
14847;SDS011;7516;43.570;1.448;2022-11-09T02:53:07;2.43;;;1.60;;
14847;SDS011;7516;43.570;1.448;2022-11-09T02:55:36;2.63;;;1.73;;
14847;SDS011;7516;43.570;1.448;2022-11-09T02:58:03;2.57;;;1.70;;
14847;SDS011;7516;43.570;1.448;2022-11-09T03:00:31;2.23;;;1.57;;
14847;SDS011;7516;43.570;1.448;2022-11-09T03:02:58;3.27;;;1.90;;
14847;SDS011;7516;43.570;1.448;2022-11-09T03:05:26;2.77;;;1.97;;
14847;SDS011;7516;43.570;1.448;2022-11-09T03:07:53;2.00;;;1.53;;
14847;SDS011;7516;43.570;1.448;2022-11-09T03:10:21;2.97;;;2.10;;
14847;SDS011;7516;43.570;1.448;2022-11-09T03:12:50;2.10;;;1.70;;
14847;SDS011;7516;43.570;1.448;2022-11-09T03:15:19;2.50;;;1.40;;
14847;SDS011;7516;43.570;1.448;2022-11-09T03:17:46;2.40;;;1.63;;
14847;SDS011;7516;43.570;1.448;2022-11-09T03:20:14;3.10;;;1.83;;
14847;SDS011;7516;43.570;1.448;2022-11-09T03:22:41;3.07;;;1.87;;
14847;SDS011;7516;43.570;1.448;2022-11-09T03:25:08;2.53;;;1.90;;
14847;SDS011;7516;43.570;1.448;2022-11-09T03:27:36;2.67;;;1.80;;
14847;SDS011;7516;43.570;1.448;2022-11-09T03:30:06;1.43;;;1.30;;
14847;SDS011;7516;43.570;1.448;2022-11-09T03:32:34;2.93;;;1.87;;
14847;SDS011;7516;43.570;1.448;2022-11-09T03:35:01;2.10;;;1.60;;
14847;SDS011;7516;43.570;1.448;2022-11-09T03:37:29;3.43;;;1.70;;
14847;SDS011;7516;43.570;1.448;2022-11-09T03:39:57;2.17;;;1.60;;
14847;SDS011;7516;43.570;1.448;2022-11-09T03:42:24;2.67;;;1.80;;
14847;SDS011;7516;43.570;1.448;2022-11-09T03:44:52;2.20;;;1.70;;
14847;SDS011;7516;43.570;1.448;2022-11-09T03:47:20;2.23;;;1.70;;
14847;SDS011;7516;43.570;1.448;2022-11-09T03:49:48;2.83;;;1.63;;
14847;SDS011;7516;43.570;1.448;2022-11-09T03:52:15;2.90;;;1.90;;
14847;SDS011;7516;43.570;1.448;2022-11-09T03:54:43;2.50;;;1.53;;
14847;SDS011;7516;43.570;1.448;2022-11-09T03:57:10;2.80;;;1.90;;
14847;SDS011;7516;43.570;1.448;2022-11-09T03:59:38;3.20;;;1.83;;
14847;SDS011;7516;43.570;1.448;2022-11-09T04:02:05;2.87;;;1.80;;
14847;SDS011;7516;43.570;1.448;2022-11-09T04:04:34;2.10;;;1.70;;
14847;SDS011;7516;43.570;1.448;2022-11-09T04:07:01;2.60;;;2.00;;
14847;SDS011;7516;43.570;1.448;2022-11-09T04:09:29;3.43;;;2.10;;
14847;SDS011;7516;43.570;1.448;2022-11-09T04:11:56;2.73;;;1.90;;
14847;SDS011;7516;43.570;1.448;2022-11-09T04:14:24;3.00;;;1.90;;
14847;SDS011;7516;43.570;1.448;2022-11-09T04:16:51;3.03;;;1.90;;
14847;SDS011;7516;43.570;1.448;2022-11-09T04:19:19;2.40;;;2.03;;
14847;SDS011;7516;43.570;1.448;2022-11-09T04:21:48;3.13;;;2.27;;
14847;SDS011;7516;43.570;1.448;2022-11-09T04:24:16;2.17;;;1.70;;
14847;SDS011;7516;43.570;1.448;2022-11-09T04:26:44;2.23;;;1.60;;
14847;SDS011;7516;43.570;1.448;2022-11-09T04:29:13;2.23;;;1.90;;
14847;SDS011;7516;43.570;1.448;2022-11-09T04:31:40;2.80;;;1.93;;
14847;SDS011;7516;43.570;1.448;2022-11-09T04:34:08;1.83;;;1.60;;
14847;SDS011;7516;43.570;1.448;2022-11-09T04:36:35;2.80;;;2.03;;
14847;SDS011;7516;43.570;1.448;2022-11-09T04:39:05;3.50;;;1.80;;
14847;SDS011;7516;43.570;1.448;2022-11-09T04:41:32;2.40;;;1.70;;
14847;SDS011;7516;43.570;1.448;2022-11-09T04:44:00;2.37;;;1.67;;
14847;SDS011;7516;43.570;1.448;2022-11-09T04:46:27;2.10;;;1.70;;
14847;SDS011;7516;43.570;1.448;2022-11-09T04:48:54;3.43;;;2.07;;
14847;SDS011;7516;43.570;1.448;2022-11-09T04:51:22;3.53;;;1.97;;
14847;SDS011;7516;43.570;1.448;2022-11-09T04:53:49;2.20;;;1.83;;
14847;SDS011;7516;43.570;1.448;2022-11-09T04:56:18;2.50;;;2.00;;
14847;SDS011;7516;43.570;1.448;2022-11-09T04:58:46;2.73;;;1.80;;
14847;SDS011;7516;43.570;1.448;2022-11-09T05:01:14;2.67;;;1.80;;
14847;SDS011;7516;43.570;1.448;2022-11-09T05:03:41;3.30;;;2.00;;
14847;SDS011;7516;43.570;1.448;2022-11-09T05:06:09;2.70;;;1.63;;
14847;SDS011;7516;43.570;1.448;2022-11-09T05:08:54;3.30;;;1.70;;
14847;SDS011;7516;43.570;1.448;2022-11-09T05:11:23;3.07;;;2.10;;
14847;SDS011;7516;43.570;1.448;2022-11-09T05:13:51;5.27;;;2.97;;
14847;SDS011;7516;43.570;1.448;2022-11-09T05:16:18;3.97;;;2.70;;
14847;SDS011;7516;43.570;1.448;2022-11-09T05:18:47;2.97;;;2.20;;
14847;SDS011;7516;43.570;1.448;2022-11-09T05:21:15;5.17;;;2.33;;
14847;SDS011;7516;43.570;1.448;2022-11-09T05:23:43;3.20;;;2.37;;
14847;SDS011;7516;43.570;1.448;2022-11-09T05:26:29;2.93;;;2.10;;
14847;SDS011;7516;43.570;1.448;2022-11-09T05:28:59;4.30;;;2.37;;
14847;SDS011;7516;43.570;1.448;2022-11-09T05:31:28;4.43;;;2.20;;
14847;SDS011;7516;43.570;1.448;2022-11-09T05:33:56;2.27;;;1.80;;
14847;SDS011;7516;43.570;1.448;2022-11-09T05:36:24;2.53;;;1.83;;
14847;SDS011;7516;43.570;1.448;2022-11-09T05:38:53;3.43;;;1.90;;
14847;SDS011;7516;43.570;1.448;2022-11-09T05:41:21;2.90;;;2.00;;
14847;SDS011;7516;43.570;1.448;2022-11-09T05:43:50;2.00;;;1.60;;
14847;SDS011;7516;43.570;1.448;2022-11-09T05:46:18;2.37;;;1.70;;
14847;SDS011;7516;43.570;1.448;2022-11-09T05:48:45;2.40;;;1.77;;
14847;SDS011;7516;43.570;1.448;2022-11-09T05:51:13;4.03;;;2.10;;
14847;SDS011;7516;43.570;1.448;2022-11-09T05:53:41;2.00;;;1.73;;
14847;SDS011;7516;43.570;1.448;2022-11-09T05:56:09;3.23;;;2.00;;
14847;SDS011;7516;43.570;1.448;2022-11-09T05:58:37;2.73;;;1.70;;
14847;SDS011;7516;43.570;1.448;2022-11-09T06:01:07;2.73;;;1.70;;
14847;SDS011;7516;43.570;1.448;2022-11-09T06:03:36;3.77;;;1.77;;
14847;SDS011;7516;43.570;1.448;2022-11-09T06:06:05;1.80;;;1.50;;
14847;SDS011;7516;43.570;1.448;2022-11-09T06:08:34;2.47;;;1.80;;
14847;SDS011;7516;43.570;1.448;2022-11-09T06:11:02;2.70;;;1.73;;
14847;SDS011;7516;43.570;1.448;2022-11-09T06:13:31;2.40;;;1.60;;
14847;SDS011;7516;43.570;1.448;2022-11-09T06:16:00;2.73;;;1.70;;
14847;SDS011;7516;43.570;1.448;2022-11-09T06:18:30;2.00;;;1.70;;
14847;SDS011;7516;43.570;1.448;2022-11-09T06:21:00;2.60;;;1.63;;
14847;SDS011;7516;43.570;1.448;2022-11-09T06:23:29;2.33;;;1.43;;
14847;SDS011;7516;43.570;1.448;2022-11-09T06:25:57;4.00;;;1.50;;
14847;SDS011;7516;43.570;1.448;2022-11-09T06:28:26;2.10;;;1.47;;
14847;SDS011;7516;43.570;1.448;2022-11-09T06:30:55;2.97;;;1.53;;
14847;SDS011;7516;43.570;1.448;2022-11-09T06:33:23;2.07;;;1.50;;
14847;SDS011;7516;43.570;1.448;2022-11-09T06:35:52;2.70;;;1.73;;
14847;SDS011;7516;43.570;1.448;2022-11-09T06:38:21;1.50;;;1.23;;
14847;SDS011;7516;43.570;1.448;2022-11-09T06:40:50;3.20;;;1.50;;
14847;SDS011;7516;43.570;1.448;2022-11-09T06:43:18;3.07;;;2.13;;
14847;SDS011;7516;43.570;1.448;2022-11-09T06:45:46;3.47;;;2.17;;
14847;SDS011;7516;43.570;1.448;2022-11-09T06:48:13;2.80;;;2.20;;
14847;SDS011;7516;43.570;1.448;2022-11-09T06:50:41;2.93;;;2.10;;
14847;SDS011;7516;43.570;1.448;2022-11-09T06:53:10;3.70;;;1.80;;
14847;SDS011;7516;43.570;1.448;2022-11-09T06:55:39;2.10;;;1.73;;
14847;SDS011;7516;43.570;1.448;2022-11-09T06:58:08;2.30;;;1.97;;
14847;SDS011;7516;43.570;1.448;2022-11-09T07:00:38;2.57;;;2.10;;
14847;SDS011;7516;43.570;1.448;2022-11-09T07:03:05;2.43;;;1.87;;
14847;SDS011;7516;43.570;1.448;2022-11-09T07:05:36;2.37;;;1.80;;
14847;SDS011;7516;43.570;1.448;2022-11-09T07:08:04;2.43;;;1.80;;
14847;SDS011;7516;43.570;1.448;2022-11-09T07:10:33;2.93;;;1.93;;
14847;SDS011;7516;43.570;1.448;2022-11-09T07:13:00;3.17;;;2.00;;
14847;SDS011;7516;43.570;1.448;2022-11-09T07:15:28;3.50;;;2.00;;
14847;SDS011;7516;43.570;1.448;2022-11-09T07:17:56;3.30;;;2.23;;
14847;SDS011;7516;43.570;1.448;2022-11-09T07:20:24;4.53;;;2.53;;
14847;SDS011;7516;43.570;1.448;2022-11-09T07:22:53;4.10;;;2.10;;
14847;SDS011;7516;43.570;1.448;2022-11-09T07:25:20;2.50;;;2.10;;
14847;SDS011;7516;43.570;1.448;2022-11-09T07:27:50;2.03;;;1.90;;
14847;SDS011;7516;43.570;1.448;2022-11-09T07:30:18;2.30;;;1.87;;
14847;SDS011;7516;43.570;1.448;2022-11-09T07:32:45;2.63;;;2.03;;
14847;SDS011;7516;43.570;1.448;2022-11-09T07:35:13;2.30;;;1.87;;
14847;SDS011;7516;43.570;1.448;2022-11-09T07:37:40;3.83;;;2.13;;
14847;SDS011;7516;43.570;1.448;2022-11-09T07:40:08;1.93;;;1.67;;
14847;SDS011;7516;43.570;1.448;2022-11-09T07:42:36;2.73;;;1.70;;
14847;SDS011;7516;43.570;1.448;2022-11-09T07:45:05;2.73;;;1.70;;
14847;SDS011;7516;43.570;1.448;2022-11-09T07:47:33;2.63;;;1.77;;
14847;SDS011;7516;43.570;1.448;2022-11-09T07:50:01;2.43;;;1.87;;
14847;SDS011;7516;43.570;1.448;2022-11-09T07:52:29;2.40;;;1.70;;
14847;SDS011;7516;43.570;1.448;2022-11-09T07:54:56;1.87;;;1.60;;
14847;SDS011;7516;43.570;1.448;2022-11-09T07:57:24;1.90;;;1.63;;
14847;SDS011;7516;43.570;1.448;2022-11-09T07:59:51;2.23;;;1.60;;
14847;SDS011;7516;43.570;1.448;2022-11-09T08:02:20;4.07;;;1.50;;
14847;SDS011;7516;43.570;1.448;2022-11-09T08:04:48;1.83;;;1.37;;
14847;SDS011;7516;43.570;1.448;2022-11-09T08:07:15;1.67;;;1.50;;
14847;SDS011;7516;43.570;1.448;2022-11-09T08:09:43;2.43;;;1.60;;
14847;SDS011;7516;43.570;1.448;2022-11-09T08:12:10;2.40;;;1.87;;
14847;SDS011;7516;43.570;1.448;2022-11-09T08:14:38;1.97;;;1.63;;
14847;SDS011;7516;43.570;1.448;2022-11-09T08:17:05;2.67;;;1.77;;
14847;SDS011;7516;43.570;1.448;2022-11-09T08:19:34;3.60;;;2.10;;
14847;SDS011;7516;43.570;1.448;2022-11-09T08:22:02;3.70;;;2.00;;
14847;SDS011;7516;43.570;1.448;2022-11-09T08:24:29;3.37;;;2.47;;
14847;SDS011;7516;43.570;1.448;2022-11-09T08:26:57;4.90;;;3.23;;
14847;SDS011;7516;43.570;1.448;2022-11-09T08:29:24;4.70;;;2.77;;
14847;SDS011;7516;43.570;1.448;2022-11-09T08:31:52;4.77;;;3.10;;
14847;SDS011;7516;43.570;1.448;2022-11-09T08:34:19;6.93;;;2.80;;
14847;SDS011;7516;43.570;1.448;2022-11-09T08:36:48;4.43;;;2.90;;
14847;SDS011;7516;43.570;1.448;2022-11-09T08:39:17;4.80;;;3.17;;
14847;SDS011;7516;43.570;1.448;2022-11-09T08:41:47;7.87;;;3.07;;
14847;SDS011;7516;43.570;1.448;2022-11-09T08:44:14;5.93;;;4.10;;
14847;SDS011;7516;43.570;1.448;2022-11-09T08:46:42;7.17;;;4.17;;
14847;SDS011;7516;43.570;1.448;2022-11-09T08:49:09;10.07;;;4.77;;
14847;SDS011;7516;43.570;1.448;2022-11-09T08:51:37;8.33;;;4.53;;
14847;SDS011;7516;43.570;1.448;2022-11-09T08:54:06;6.73;;;3.80;;
14847;SDS011;7516;43.570;1.448;2022-11-09T08:56:35;6.80;;;4.00;;
14847;SDS011;7516;43.570;1.448;2022-11-09T08:59:02;8.57;;;4.07;;
14847;SDS011;7516;43.570;1.448;2022-11-09T09:01:30;9.23;;;4.50;;
14847;SDS011;7516;43.570;1.448;2022-11-09T09:03:57;7.37;;;4.67;;
14847;SDS011;7516;43.570;1.448;2022-11-09T09:06:25;9.73;;;6.00;;
14847;SDS011;7516;43.570;1.448;2022-11-09T09:08:52;9.57;;;6.23;;
14847;SDS011;7516;43.570;1.448;2022-11-09T09:11:21;9.37;;;5.47;;
14847;SDS011;7516;43.570;1.448;2022-11-09T09:13:49;13.17;;;6.33;;
14847;SDS011;7516;43.570;1.448;2022-11-09T09:16:16;9.50;;;6.20;;
14847;SDS011;7516;43.570;1.448;2022-11-09T09:18:45;10.60;;;6.10;;
14847;SDS011;7516;43.570;1.448;2022-11-09T09:21:13;9.23;;;6.23;;
14847;SDS011;7516;43.570;1.448;2022-11-09T09:23:41;11.17;;;7.30;;
14847;SDS011;7516;43.570;1.448;2022-11-09T09:26:08;10.90;;;6.23;;
14847;SDS011;7516;43.570;1.448;2022-11-09T09:28:37;9.33;;;6.50;;
14847;SDS011;7516;43.570;1.448;2022-11-09T09:31:05;11.87;;;7.57;;
14847;SDS011;7516;43.570;1.448;2022-11-09T09:33:33;9.97;;;6.43;;
14847;SDS011;7516;43.570;1.448;2022-11-09T09:36:00;10.03;;;7.40;;
14847;SDS011;7516;43.570;1.448;2022-11-09T09:38:28;12.17;;;6.80;;
14847;SDS011;7516;43.570;1.448;2022-11-09T09:40:57;12.00;;;6.70;;
14847;SDS011;7516;43.570;1.448;2022-11-09T09:43:27;10.60;;;7.13;;
14847;SDS011;7516;43.570;1.448;2022-11-09T09:46:01;8.93;;;6.17;;
14847;SDS011;7516;43.570;1.448;2022-11-09T09:48:35;11.07;;;6.37;;
14847;SDS011;7516;43.570;1.448;2022-11-09T09:51:09;12.37;;;5.87;;
14847;SDS011;7516;43.570;1.448;2022-11-09T09:53:42;11.00;;;5.40;;
14847;SDS011;7516;43.570;1.448;2022-11-09T09:56:15;8.77;;;5.80;;
14847;SDS011;7516;43.570;1.448;2022-11-09T09:58:48;13.10;;;6.30;;
14847;SDS011;7516;43.570;1.448;2022-11-09T10:01:22;14.83;;;6.00;;
14847;SDS011;7516;43.570;1.448;2022-11-09T10:03:55;9.30;;;5.40;;
14847;SDS011;7516;43.570;1.448;2022-11-09T10:06:31;9.83;;;5.10;;
14847;SDS011;7516;43.570;1.448;2022-11-09T10:09:11;7.53;;;5.10;;
14847;SDS011;7516;43.570;1.448;2022-11-09T10:11:50;7.47;;;4.97;;
14847;SDS011;7516;43.570;1.448;2022-11-09T10:14:32;10.67;;;4.97;;
14847;SDS011;7516;43.570;1.448;2022-11-09T10:17:21;10.97;;;5.20;;
14847;SDS011;7516;43.570;1.448;2022-11-09T10:20:00;12.07;;;5.00;;
14847;SDS011;7516;43.570;1.448;2022-11-09T10:22:41;11.07;;;4.83;;
14847;SDS011;7516;43.570;1.448;2022-11-09T10:25:18;8.57;;;5.20;;
14847;SDS011;7516;43.570;1.448;2022-11-09T10:27:49;11.00;;;5.10;;
14847;SDS011;7516;43.570;1.448;2022-11-09T10:30:20;7.77;;;4.60;;
14847;SDS011;7516;43.570;1.448;2022-11-09T10:32:51;11.67;;;5.17;;
14847;SDS011;7516;43.570;1.448;2022-11-09T10:35:23;8.80;;;4.50;;
14847;SDS011;7516;43.570;1.448;2022-11-09T10:37:54;12.10;;;4.83;;
14847;SDS011;7516;43.570;1.448;2022-11-09T10:40:23;11.60;;;5.13;;
14847;SDS011;7516;43.570;1.448;2022-11-09T10:42:54;11.47;;;4.40;;
14847;SDS011;7516;43.570;1.448;2022-11-09T10:45:28;10.20;;;5.67;;
14847;SDS011;7516;43.570;1.448;2022-11-09T10:47:59;7.70;;;4.30;;
14847;SDS011;7516;43.570;1.448;2022-11-09T10:50:29;9.80;;;5.00;;
14847;SDS011;7516;43.570;1.448;2022-11-09T10:55:50;8.93;;;4.00;;
14847;SDS011;7516;43.570;1.448;2022-11-09T10:58:22;8.57;;;4.73;;
14847;SDS011;7516;43.570;1.448;2022-11-09T11:01:02;12.03;;;5.40;;
14847;SDS011;7516;43.570;1.448;2022-11-09T11:03:32;10.07;;;4.63;;
14847;SDS011;7516;43.570;1.448;2022-11-09T11:06:04;11.07;;;4.73;;
14847;SDS011;7516;43.570;1.448;2022-11-09T11:08:34;9.03;;;4.73;;
14847;SDS011;7516;43.570;1.448;2022-11-09T11:11:11;13.47;;;4.43;;
14847;SDS011;7516;43.570;1.448;2022-11-09T11:13:42;9.80;;;3.70;;
14847;SDS011;7516;43.570;1.448;2022-11-09T11:16:14;7.03;;;3.93;;
14847;SDS011;7516;43.570;1.448;2022-11-09T11:18:54;6.97;;;3.50;;
14847;SDS011;7516;43.570;1.448;2022-11-09T11:21:23;7.23;;;3.37;;
14847;SDS011;7516;43.570;1.448;2022-11-09T11:24:02;8.27;;;3.90;;
14847;SDS011;7516;43.570;1.448;2022-11-09T11:26:39;8.23;;;3.30;;
14847;SDS011;7516;43.570;1.448;2022-11-09T11:29:28;5.77;;;2.70;;
14847;SDS011;7516;43.570;1.448;2022-11-09T11:32:00;4.13;;;2.50;;
14847;SDS011;7516;43.570;1.448;2022-11-09T11:34:30;2.30;;;1.60;;
14847;SDS011;7516;43.570;1.448;2022-11-09T11:37:03;3.00;;;1.30;;
14847;SDS011;7516;43.570;1.448;2022-11-09T11:39:54;2.87;;;1.13;;
14847;SDS011;7516;43.570;1.448;2022-11-09T11:42:35;3.27;;;1.63;;
14847;SDS011;7516;43.570;1.448;2022-11-09T11:45:27;3.47;;;1.50;;
14847;SDS011;7516;43.570;1.448;2022-11-09T11:48:06;4.40;;;1.57;;
14847;SDS011;7516;43.570;1.448;2022-11-09T11:50:48;3.47;;;1.40;;
14847;SDS011;7516;43.570;1.448;2022-11-09T11:53:24;2.00;;;1.43;;
14847;SDS011;7516;43.570;1.448;2022-11-09T11:56:23;3.53;;;1.40;;
14847;SDS011;7516;43.570;1.448;2022-11-09T11:59:08;3.73;;;1.10;;
14847;SDS011;7516;43.570;1.448;2022-11-09T12:02:03;2.03;;;1.37;;
14847;SDS011;7516;43.570;1.448;2022-11-09T12:04:59;2.63;;;1.40;;
14847;SDS011;7516;43.570;1.448;2022-11-09T12:07:49;3.87;;;1.47;;
14847;SDS011;7516;43.570;1.448;2022-11-09T12:10:27;4.90;;;1.40;;
14847;SDS011;7516;43.570;1.448;2022-11-09T12:13:08;2.53;;;1.40;;
14847;SDS011;7516;43.570;1.448;2022-11-09T12:15:46;3.47;;;1.50;;
14847;SDS011;7516;43.570;1.448;2022-11-09T12:18:27;4.40;;;1.40;;
14847;SDS011;7516;43.570;1.448;2022-11-09T12:21:11;2.17;;;1.20;;
14847;SDS011;7516;43.570;1.448;2022-11-09T12:23:59;2.20;;;1.20;;
14847;SDS011;7516;43.570;1.448;2022-11-09T12:26:46;3.37;;;1.53;;
14847;SDS011;7516;43.570;1.448;2022-11-09T12:29:26;2.83;;;1.30;;
14847;SDS011;7516;43.570;1.448;2022-11-09T12:32:03;4.70;;;1.70;;
14847;SDS011;7516;43.570;1.448;2022-11-09T12:34:42;4.50;;;1.80;;
14847;SDS011;7516;43.570;1.448;2022-11-09T12:37:15;7.47;;;2.10;;
14847;SDS011;7516;43.570;1.448;2022-11-09T12:39:49;4.17;;;1.67;;
14847;SDS011;7516;43.570;1.448;2022-11-09T12:42:19;4.80;;;1.70;;
14847;SDS011;7516;43.570;1.448;2022-11-09T12:44:52;3.83;;;1.90;;
14847;SDS011;7516;43.570;1.448;2022-11-09T12:47:29;4.47;;;1.90;;
14847;SDS011;7516;43.570;1.448;2022-11-09T12:50:03;4.97;;;2.63;;
14847;SDS011;7516;43.570;1.448;2022-11-09T12:52:31;4.67;;;2.20;;
14847;SDS011;7516;43.570;1.448;2022-11-09T12:55:00;5.37;;;2.30;;
14847;SDS011;7516;43.570;1.448;2022-11-09T12:57:31;5.10;;;1.97;;
14847;SDS011;7516;43.570;1.448;2022-11-09T12:59:59;4.50;;;2.17;;
14847;SDS011;7516;43.570;1.448;2022-11-09T13:02:28;4.03;;;2.00;;
14847;SDS011;7516;43.570;1.448;2022-11-09T13:04:59;6.43;;;2.03;;
14847;SDS011;7516;43.570;1.448;2022-11-09T13:07:29;5.03;;;2.10;;
14847;SDS011;7516;43.570;1.448;2022-11-09T13:10:25;5.60;;;1.73;;
14847;SDS011;7516;43.570;1.448;2022-11-09T13:13:03;4.77;;;1.80;;
14847;SDS011;7516;43.570;1.448;2022-11-09T13:18:45;3.23;;;1.90;;
14847;SDS011;7516;43.570;1.448;2022-11-09T13:21:30;4.87;;;2.00;;
14847;SDS011;7516;43.570;1.448;2022-11-09T13:27:36;3.97;;;2.20;;
14847;SDS011;7516;43.570;1.448;2022-11-09T13:33:16;5.20;;;2.37;;
14847;SDS011;7516;43.570;1.448;2022-11-09T13:35:55;4.10;;;2.63;;
14847;SDS011;7516;43.570;1.448;2022-11-09T13:41:48;5.73;;;2.70;;
14847;SDS011;7516;43.570;1.448;2022-11-09T13:44:20;5.67;;;2.70;;
14847;SDS011;7516;43.570;1.448;2022-11-09T13:46:51;5.47;;;2.80;;
14847;SDS011;7516;43.570;1.448;2022-11-09T13:55:22;5.87;;;3.27;;
14847;SDS011;7516;43.570;1.448;2022-11-09T13:57:52;6.43;;;3.60;;
14847;SDS011;7516;43.570;1.448;2022-11-09T14:00:23;5.80;;;3.77;;
14847;SDS011;7516;43.570;1.448;2022-11-09T14:02:53;7.00;;;3.50;;
14847;SDS011;7516;43.570;1.448;2022-11-09T14:05:23;4.77;;;3.30;;
14847;SDS011;7516;43.570;1.448;2022-11-09T14:07:52;7.23;;;3.47;;
14847;SDS011;7516;43.570;1.448;2022-11-09T14:10:22;5.53;;;3.57;;
14847;SDS011;7516;43.570;1.448;2022-11-09T14:13:04;5.10;;;2.77;;
14847;SDS011;7516;43.570;1.448;2022-11-09T14:15:52;4.83;;;3.43;;
14847;SDS011;7516;43.570;1.448;2022-11-09T14:18:27;5.30;;;3.40;;
14847;SDS011;7516;43.570;1.448;2022-11-09T14:21:13;4.23;;;3.13;;
14847;SDS011;7516;43.570;1.448;2022-11-09T14:23:50;6.50;;;3.50;;
14847;SDS011;7516;43.570;1.448;2022-11-09T14:26:19;7.10;;;3.67;;
14847;SDS011;7516;43.570;1.448;2022-11-09T14:28:47;7.80;;;3.80;;
14847;SDS011;7516;43.570;1.448;2022-11-09T14:31:23;8.23;;;4.47;;
14847;SDS011;7516;43.570;1.448;2022-11-09T14:33:59;7.47;;;3.80;;
14847;SDS011;7516;43.570;1.448;2022-11-09T14:36:29;4.30;;;2.93;;
14847;SDS011;7516;43.570;1.448;2022-11-09T14:39:00;6.70;;;2.73;;
14847;SDS011;7516;43.570;1.448;2022-11-09T14:41:29;4.77;;;3.00;;
14847;SDS011;7516;43.570;1.448;2022-11-09T14:43:58;4.80;;;2.40;;
14847;SDS011;7516;43.570;1.448;2022-11-09T14:46:28;6.80;;;2.73;;
14847;SDS011;7516;43.570;1.448;2022-11-09T14:48:57;7.57;;;2.60;;
14847;SDS011;7516;43.570;1.448;2022-11-09T14:51:29;4.27;;;2.07;;
14847;SDS011;7516;43.570;1.448;2022-11-09T14:53:58;4.37;;;2.43;;
14847;SDS011;7516;43.570;1.448;2022-11-09T14:56:28;6.10;;;1.93;;
14847;SDS011;7516;43.570;1.448;2022-11-09T14:58:57;4.33;;;2.33;;
14847;SDS011;7516;43.570;1.448;2022-11-09T15:01:28;5.87;;;2.40;;
14847;SDS011;7516;43.570;1.448;2022-11-09T15:04:07;4.13;;;2.23;;
14847;SDS011;7516;43.570;1.448;2022-11-09T15:06:42;4.67;;;2.07;;
14847;SDS011;7516;43.570;1.448;2022-11-09T15:09:16;5.83;;;1.70;;
14847;SDS011;7516;43.570;1.448;2022-11-09T15:11:45;3.07;;;1.43;;
14847;SDS011;7516;43.570;1.448;2022-11-09T15:14:14;2.30;;;1.37;;
14847;SDS011;7516;43.570;1.448;2022-11-09T15:16:57;3.13;;;1.23;;
14847;SDS011;7516;43.570;1.448;2022-11-09T15:19:28;2.23;;;0.83;;
14847;SDS011;7516;43.570;1.448;2022-11-09T15:21:57;2.87;;;0.77;;
14847;SDS011;7516;43.570;1.448;2022-11-09T15:24:27;1.93;;;0.87;;
14847;SDS011;7516;43.570;1.448;2022-11-09T15:26:55;2.50;;;0.87;;
14847;SDS011;7516;43.570;1.448;2022-11-09T15:29:24;1.30;;;0.60;;
14847;SDS011;7516;43.570;1.448;2022-11-09T15:31:57;1.03;;;0.60;;
14847;SDS011;7516;43.570;1.448;2022-11-09T15:34:26;2.93;;;0.83;;
14847;SDS011;7516;43.570;1.448;2022-11-09T15:37:00;2.10;;;0.60;;
14847;SDS011;7516;43.570;1.448;2022-11-09T15:39:27;1.03;;;0.50;;
14847;SDS011;7516;43.570;1.448;2022-11-09T15:41:55;1.80;;;0.50;;
14847;SDS011;7516;43.570;1.448;2022-11-09T15:44:22;2.07;;;0.90;;